KBJI/BJI METAR and TAF weather

Enter ICAO airport designator
Station Type Date Time Source
KBJI METAR 2020/09/18 19:35 UTC NOAA

KBJI 181935Z AUTO 21007KT 10SM SCT047 15/04 A3031 RMK AO2 T01540044


Station Type Date Time Source
KBJI Decoded METAR 2020/09/18 19:35 UTC NOAA

Bemidji, MN, United States (KBJI) 47-30N 094-56W 420M
Sep 18, 2020 - 03:35 PM EDT / 2020.09.18 1935 UTC
Wind: from the SSW (210 degrees) at 8 MPH (7 KT):0
Visibility: 10 mile(s):0
Sky conditions: partly cloudy
Temperature: 59.7 F (15.4 C)
Dew Point: 39.9 F (4.4 C)
Relative Humidity: 47%
Pressure (altimeter): 30.31 in. Hg (1026 hPa)
ob: KBJI 181935Z AUTO 21007KT 10SM SCT047 15/04 A3031 RMK AO2 T01540044
cycle: 19

Station Type Date Time Source
KBJI TAF 2020/09/18 18:22 UTC NOAA

TAF KBJI 181720Z 1818/1918 18008KT P6SM BKN200

Example: see airport list